• Join FlightAware (Why Join?)
  • Login
  • US Flag 
02:12PM EST


 

Airport Tracker/Info


-or-


 

Live Flight TrackerFlight Track Log ✈ N717AN ✈ 28-Apr-2013 ✈ KJFK - SBGR / GRU

Flight Track Log - Related Links

Times and Time Zones

All times are in EDT time to prevent confusion due to time zone crossing. See the N717AN flight status page for this flight to view local times or setup timezone preferences in your user account.

Time Position Orientation Groundspeed Altitude Reporting Facility
EDT Latitude Longitude Course Direction KTS MPH feet Rate Location/Type
10:36PM 40.6300 -73.7750 118° Southeast 180 207 500  Level FlightAware
10:37PM 40.6220 -73.7620 129° Southeast 181 208 1,100 1,560 Climbing FlightAware
10:37PM 40.6110 -73.7520 145° Southeast 193 222 1,300 900 Climbing FlightAware
10:37PM 40.5880 -73.7370 154° Southeast 228 262 1,700 1,620 Climbing FlightAware
10:38PM 40.5590 -73.7180 154° Southeast 242 278 2,800 2,280 Climbing FlightAware
10:38PM 40.5330 -73.7030 156° South 246 283 3,800 2,460 Climbing FlightAware
10:39PM 40.5169 -73.6885 146° Southeast 256 295 4,400 2,160 Climbing FlightAware ADS-B
10:39PM 40.5130 -73.6839 138° Southeast 261 300 4,500 1,800 Climbing FlightAware ADS-B
10:39PM 40.5065 -73.6737 130° Southeast 266 306 4,800 2,400 Climbing FlightAware ADS-B
10:39PM 40.5018 -73.6640 123° Southeast 267 307 5,100 3,180 Climbing FlightAware ADS-B
10:39PM 40.4905 -73.6375 119° Southeast 261 300 6,200 3,060 Climbing FlightAware ADS-B
10:39PM 40.4837 -73.6215 119° Southeast 260 299 6,700 2,520 Climbing FlightAware ADS-B
10:40PM 40.4789 -73.6094 118° Southeast 260 299 7,100 1,860 Climbing FlightAware ADS-B
10:40PM 40.4714 -73.5895 116° Southeast 271 312 7,400 1,440 Climbing FlightAware ADS-B
10:40PM 40.4624 -73.5654 116° Southeast 280 322 7,800 1,980 Climbing FlightAware ADS-B
10:40PM 40.4539 -73.5443 118° Southeast 281 323 8,400 2,520 Climbing FlightAware ADS-B
10:40PM 40.4450 -73.5230 119° Southeast 283 326 9,000 2,220 Climbing FlightAware ADS-B
10:41PM 40.4359 -73.5014 119° Southeast 286 329 9,500 1,680 Climbing FlightAware ADS-B
10:41PM 40.4165 -73.4543 118° Southeast 303 349 10,300 1,260 Climbing FlightAware ADS-B
10:42PM 40.3971 -73.4090 119° Southeast 333 383 10,700 1,200 Climbing FlightAware ADS-B
10:42PM 40.3837 -73.3767 119° Southeast 344 396 11,200 1,860 Climbing FlightAware ADS-B
10:43PM 40.3580 -73.3151 119° Southeast 359 413 12,300 2,040 Climbing FlightAware ADS-B
10:43PM 40.3327 -73.2566 120° Southeast 373 429 13,400 2,220 Climbing FlightAware ADS-B
10:43PM 40.3202 -73.2332 125° Southeast 375 432 13,900 2,160 Climbing FlightAware ADS-B
10:44PM 40.2854 -73.1724 127° Southeast 384 442 15,100 2,640 Climbing FlightAware ADS-B
10:44PM 40.2519 -73.1164 128° Southeast 382 440 16,700 2,460 Climbing FlightAware ADS-B
10:45PM 40.2197 -73.0773 137° Southeast 387 445 17,400 1,380 Climbing FlightAware ADS-B
10:45PM 40.1997 -73.0622 150° Southeast 395 455 17,600 780 Climbing FlightAware ADS-B
10:45PM 40.1821 -73.0530 158° South 403 464 17,700 1,440 Climbing FlightAware ADS-B
10:46PM 40.1274 -73.0262 159° South 415 478 18,600 1,620 Climbing FlightAware ADS-B
10:46PM 40.0726 -72.9992 159° South 428 493 19,400 1,560 Climbing FlightAware ADS-B
10:47PM 40.0157 -72.9700 159° South 441 507 20,200 1,620 Climbing FlightAware ADS-B
10:47PM 39.9566 -72.9400 159° South 447 514 21,100 1,800 Climbing FlightAware ADS-B
10:48PM 39.8953 -72.9093 159° South 455 524 22,100 1,740 Climbing FlightAware ADS-B
10:48PM 39.8340 -72.8788 159° South 464 534 22,900 1,560 Climbing FlightAware ADS-B
10:49PM 39.7731 -72.8488 159° South 471 542 23,700 1,620 Climbing FlightAware ADS-B
10:49PM 39.7008 -72.8132 159° South 476 548 24,700 1,560 Climbing FlightAware ADS-B
10:50PM 39.6170 -72.7720 159° South 481 554 25,800 1,500 Climbing FlightAware
10:51PM 39.5185 -72.7235 159° South 481 554 26,900 1,380 Climbing FlightAware ADS-B
10:51PM 39.4488 -72.6894 159° South 496 571 27,600 1,320 Climbing FlightAware ADS-B
10:52PM 39.3531 -72.6426 159° South 504 580 28,600 1,200 Climbing FlightAware ADS-B
10:53PM 39.2760 -72.6051 159° South 510 587 29,200 1,020 Climbing FlightAware ADS-B
10:53PM 39.2069 -72.5715 159° South 515 593 29,800 1,320 Climbing FlightAware ADS-B
10:54PM 39.1351 -72.5366 159° South 516 594 30,600 1,140 Climbing FlightAware ADS-B
10:54PM 39.0671 -72.5033 159° South 516 594 31,000 360 Climbing FlightAware ADS-B
10:55PM 38.9985 -72.4698 159° South 517 595 31,000  Level FlightAware ADS-B
10:55PM 38.9309 -72.4369 159° South 518 596 31,000  Level FlightAware ADS-B
10:56PM 38.8606 -72.4027 159° South 519 597 31,000  Level FlightAware ADS-B
10:56PM 38.7904 -72.3687 159° South 518 596 31,000  Level FlightAware ADS-B
10:59PM 38.4780 -72.2180 159° South 516 594 31,000  Level FlightAware
10:59PM 38.4030 -72.1810 159° South 516 594 31,000  Level FlightAware
11:00PM 38.3270 -72.1440 159° South 516 594 31,000  Level FlightAware
11:01PM 38.2020 -72.0850 160° South 517 595 31,000  Level FlightAware
11:01PM 38.1260 -72.0480 159° South 517 595 31,000  Level FlightAware
11:02PM 38.0310 -72.0020 159° South 517 595 31,000  Level FlightAware
11:03PM 37.9550 -71.9650 159° South 517 595 31,000  Level FlightAware
11:04PM 37.8790 -71.9280 159° South 517 595 31,000  Level FlightAware
11:04PM 37.8030 -71.8910 159° South 517 595 31,000  Level FlightAware
11:05PM 37.7270 -71.8540 159° South 517 595 31,000  Level FlightAware
11:06PM 37.6320 -71.8080 159° South 517 595 31,000  Level FlightAware
11:06PM 37.5570 -71.7720 159° South 517 595 31,000  Level FlightAware
11:07PM 37.4810 -71.7350 159° South 517 595 31,000  Level FlightAware
11:08PM 37.4050 -71.6980 159° South 517 595 31,000  Level FlightAware
11:08PM 37.3290 -71.6610 159° South 517 595 31,000  Level FlightAware
11:09PM 37.2340 -71.6160 159° South 517 595 31,000  Level FlightAware
11:10PM 37.1580 -71.5790 159° South 517 595 31,000  Level FlightAware
11:15PM 36.5416 -71.6063 175° South  Level FlightAware Approximate
11:16PM 36.4076 -71.5914 175° South  Level FlightAware Approximate
11:16PM 36.1167 -71.5667 177° South 514 592 31,000  Level New York Oceanic (ODAPS)
11:17PM 36.2737 -71.5766 175° South  Level FlightAware Approximate
11:18PM 36.1396 -71.5627 176° South  Level FlightAware Approximate
11:19PM 36.0055 -71.5504 176° South  Level FlightAware Approximate
11:19PM 35.6333 -71.5333 168° South 521 600 31,000  Level New York Oceanic (ODAPS)
11:20PM 35.8713 -71.5382 176° South  Level FlightAware Approximate
11:21PM 35.7372 -71.5261 176° South  Level FlightAware Approximate
11:22PM 35.2207 -71.4276 168° South 514 592 31,000  Level FlightAware Transoceanic
11:23PM 35.0831 -71.3926 168° South 514 592 31,000  Level FlightAware Transoceanic
11:24PM 34.9455 -71.3577 168° South 514 592 31,000  Level FlightAware Transoceanic
11:25PM 34.8079 -71.3230 168° South 521 600 31,000  Level FlightAware Transoceanic
11:26PM 34.6703 -71.2883 168° South 521 600 31,000  Level FlightAware Transoceanic
11:26PM 34.6667 -71.2833 168° South 521 600 31,000  Level New York Oceanic (ODAPS)
11:27PM 34.5327 -71.2538 168° South 521 600 31,000  Level FlightAware Transoceanic
11:28PM 34.3951 -71.2194 168° South 521 600 31,000  Level FlightAware Transoceanic
11:29PM 34.2574 -71.1850 168° South 521 600 31,000  Level FlightAware Transoceanic
11:30PM 34.1198 -71.1508 168° South 521 600 31,000  Level FlightAware Transoceanic
11:30PM 34.1333 -71.1500 168° South 517 595 31,000  Level New York Oceanic (ODAPS)
11:31PM 33.9821 -71.1168 168° South 521 600 31,000  Level FlightAware Transoceanic
11:32PM 33.8415 -71.0788 168° South 521 600 31,000  Level FlightAware Transoceanic
11:33PM 33.7040 -71.0451 168° South 521 600 31,000  Level FlightAware Transoceanic
11:33PM 33.6833 -71.0333 169° South 517 595 31,000  Level New York Oceanic (ODAPS)
11:34PM 33.5664 -71.0115 169° South 521 600 31,000  Level FlightAware Transoceanic
11:35PM 33.4288 -70.9780 169° South 521 600 31,000  Level FlightAware Transoceanic
11:36PM 33.3042 -70.9473 169° South 517 595 31,000  Level FlightAware Transoceanic
11:37PM 33.1660 -70.9139 169° South 517 595 31,000  Level FlightAware Transoceanic
11:38PM 33.0278 -70.8806 169° South 517 595 31,000  Level FlightAware Transoceanic
11:39PM 32.8629 -70.8364 169° South 517 595 31,000  Level FlightAware Transoceanic
11:40PM 32.7262 -70.8040 169° South 517 595 31,000  Level FlightAware Transoceanic
11:41PM 32.5894 -70.7716 169° South 517 595 31,000  Level FlightAware Transoceanic
11:42PM 32.4526 -70.7393 169° South 517 595 31,000  Level FlightAware Transoceanic
11:43PM 32.3158 -70.7072 169° South 517 595 31,000  Level FlightAware Transoceanic
11:44PM 32.1791 -70.6751 169° South 517 595 31,000  Level FlightAware Transoceanic
11:44PM 32.1667 -70.6667 169° South 521 600 31,000  Level New York Oceanic (ODAPS)
11:45PM 32.0422 -70.6431 169° South 517 595 31,000  Level FlightAware Transoceanic
11:46PM 31.9054 -70.6113 169° South 517 595 31,000  Level FlightAware Transoceanic
11:47PM 31.7686 -70.5795 169° South 517 595 31,000  Level FlightAware Transoceanic
11:48PM 31.6318 -70.5478 169° South 517 595 31,000  Level FlightAware Transoceanic
11:49PM 31.4949 -70.5162 169° South 517 595 31,000  Level FlightAware Transoceanic
11:49PM 31.4500 -70.5000 169° South 514 592 31,000  Level New York Oceanic (ODAPS)
11:50PM 31.2835 -70.4648 169° South 521 600 31,000  Level FlightAware Transoceanic
11:51PM 31.1363 -70.4315 169° South 521 600 31,000  Level FlightAware Transoceanic
11:52PM 30.9890 -70.3983 169° South 521 600 31,000  Level FlightAware Transoceanic
11:53PM 30.8418 -70.3653 169° South 521 600 31,000  Level FlightAware Transoceanic
11:54PM 30.6945 -70.3323 169° South 521 600 31,000  Level FlightAware Transoceanic
11:55PM 30.6625 -70.3245 169° South 514 592 31,000  Level FlightAware Transoceanic
11:56PM 30.5313 -70.2956 169° South 514 592 31,000  Level FlightAware Transoceanic
11:57PM 30.4000 -70.2667 169° South 514 592 31,000  Level FlightAware Transoceanic
11:57PM 30.3667 -70.2500 169° South 516 594 31,000  Level New York Oceanic (ODAPS)
11:57PM 30.2167 -70.2167 169° South 514 592 31,000  Level New York Oceanic (ODAPS)
11:58PM 30.2617 -70.2352 169° South 514 592 31,000  Level FlightAware Transoceanic
11:59PM 30.1233 -70.2039 169° South 514 592 31,000  Level FlightAware Transoceanic
12:00AM 29.9850 -70.1726 169° South 514 592 31,000  Level FlightAware Transoceanic
12:01AM 29.8466 -70.1414 169° South 514 592 31,000  Level FlightAware Transoceanic
12:02AM 29.7083 -70.1104 169° South 514 592 31,000  Level FlightAware Transoceanic
12:03AM 29.5200 -70.0606 169° South 516 594 31,000  Level FlightAware Transoceanic
12:04AM 29.3713 -70.0281 169° South 514 592 31,000  Level FlightAware Transoceanic
12:05AM 29.2304 -69.9970 169° South 514 592 31,000  Level FlightAware Transoceanic
12:06AM 29.0895 -69.9659 169° South 514 592 31,000  Level FlightAware Transoceanic
12:07AM 28.9486 -69.9350 169° South 514 592 31,000  Level FlightAware Transoceanic
12:08AM 28.8077 -69.9041 169° South 514 592 31,000  Level FlightAware Transoceanic
12:09AM 28.6667 -69.8733 169° South 514 592 31,000  Level FlightAware Transoceanic
12:10AM 28.5258 -69.8426 169° South 514 592 31,000  Level FlightAware Transoceanic
12:11AM 28.3848 -69.8120 169° South 514 592 31,000  Level FlightAware Transoceanic
12:11AM 28.3167 -69.8000 169° South 496 571 31,000  Level New York Oceanic (ODAPS)
12:12AM 28.2439 -69.7815 169° South 514 592 31,000  Level FlightAware Transoceanic
12:13AM 28.1029 -69.7510 169° South 514 592 31,000  Level FlightAware Transoceanic
12:14AM 27.9619 -69.7206 169° South 514 592 31,000  Level FlightAware Transoceanic
12:15AM 27.8209 -69.6903 169° South 514 592 31,000  Level FlightAware Transoceanic
12:15AM 27.7667 -69.6833 169° South 494 568 31,000  Level New York Oceanic (ODAPS)
12:16AM 27.6800 -69.6601 169° South 514 592 31,000  Level FlightAware Transoceanic
12:17AM 27.5389 -69.6300 169° South 514 592 31,000  Level FlightAware Transoceanic
12:18AM 27.4878 -69.6211 169° South 496 571 31,000  Level FlightAware Transoceanic
12:19AM 27.3497 -69.5916 169° South 496 571 31,000  Level FlightAware Transoceanic
12:20AM 27.2115 -69.5621 169° South 496 571 31,000  Level FlightAware Transoceanic
12:21AM 27.0733 -69.5327 169° South 496 571 31,000  Level FlightAware Transoceanic
12:22AM 26.9369 -69.5054 169° South 494 568 31,000  Level FlightAware Transoceanic
12:23AM 26.7986 -69.4760 169° South 494 568 31,000  Level FlightAware Transoceanic
12:23AM 26.7167 -69.4500 170° South 492 566 31,000  Level New York Oceanic (ODAPS)
12:24AM 26.6603 -69.4466 169° South 494 568 31,000  Level FlightAware Transoceanic
12:25AM 26.5220 -69.4174 169° South 494 568 31,000  Level FlightAware Transoceanic
12:25AM 26.4333 -69.3833 170° South 492 566 31,000  Level New York Oceanic (ODAPS)
12:26AM 26.3836 -69.3882 169° South 494 568 31,000  Level FlightAware Transoceanic
12:27AM 26.2453 -69.3590 169° South 494 568 31,000  Level FlightAware Transoceanic
12:28AM 26.1070 -69.3300 169° South 494 568 31,000  Level FlightAware Transoceanic
12:29AM 25.9245 -69.2872 170° South 492 566 31,000  Level FlightAware Transoceanic
12:30AM 25.7924 -69.2603 170° South 492 566 31,000  Level FlightAware Transoceanic
12:31AM 25.6604 -69.2334 170° South 492 566 31,000  Level FlightAware Transoceanic
12:32AM 25.5213 -69.2022 170° South 492 566 31,000  Level FlightAware Transoceanic
12:33AM 25.3910 -69.1766 170° South 492 566 31,000  Level FlightAware Transoceanic
12:34AM 25.2607 -69.1510 170° South 492 566 31,000  Level FlightAware Transoceanic
12:35AM 25.1303 -69.1255 170° South 492 566 31,000  Level FlightAware Transoceanic
12:36AM 25.0000 -69.1000 146° Southeast 492 566 31,000  Level FlightAware Transoceanic
12:36AM 24.9567 -69.0750 146° Southeast 485 558 31,000  Level Miami Center
12:37AM 24.8871 -69.0148 146° Southeast 492 566 31,000  Level FlightAware Transoceanic
12:37AM 24.8197 -69.0472 170° South 490 564 31,000  Level Miami Center
12:38AM 24.7741 -68.9297 146° Southeast 492 566 31,000  Level FlightAware Transoceanic
12:38AM 24.6800 -69.0106 167° South 503 579 31,000  Level Miami Center
12:39AM 24.6610 -68.8448 146° Southeast 492 566 31,000  Level FlightAware Transoceanic
12:39AM 24.5450 -68.9781 168° South 509 586 31,000  Level Miami Center
12:40AM 24.5479 -68.7600 146° Southeast 492 566 31,000  Level FlightAware Transoceanic
12:40AM 24.4142 -68.9500 169° South 493 567 31,000  Level Miami Center
12:41AM 24.4348 -68.6754 146° Southeast 492 566 31,000  Level FlightAware Transoceanic
12:41AM 24.2789 -68.9175 168° South 493 567 31,000  Level Miami Center
12:42AM 24.1436 -68.8831 167° South 493 567 31,000  Level Miami Center
12:43AM 24.0083 -68.8508 168° South 493 567 31,000  Level Miami Center
12:44AM 23.8436 -68.8092 167° South 498 573 31,000  Level Miami Center
12:45AM 23.7106 -68.7769 167° South 498 573 31,000  Level Miami Center
12:46AM 23.5772 -68.7422 167° South 492 566 31,000  Level Miami Center
12:47AM 23.4422 -68.7125 169° South 492 566 31,000  Level Miami Center
12:48AM 23.3069 -68.6783 167° South 492 566 31,000  Level Miami Center
12:49AM 23.1992 -68.6536 168° South 492 566 31,000  Level Miami Center
12:50AM 23.0408 -68.6164 168° South 499 574 31,000  Level Miami Center
12:51AM 22.9078 -68.5822 167° South 499 574 31,000  Level Miami Center
12:52AM 22.7683 -68.5483 167° South 499 574 31,000  Level Miami Center
12:53AM 22.6353 -68.5189 168° South 488 562 31,000  Level Miami Center
12:54AM 22.5025 -68.4892 168° South 495 570 31,000  Level Miami Center
12:55AM 22.3675 -68.4575 168° South 496 571 31,000  Level Miami Center
12:56AM 22.2344 -68.4258 168° South 491 565 31,000  Level Miami Center
12:57AM 22.1056 -68.3958 168° South 484 557 31,000  Level Miami Center
12:58AM 21.9747 -68.3642 167° South 470 541 31,000  Level Miami Center
12:59AM 21.8356 -68.3328 168° South 491 565 31,000  Level Miami Center
01:00AM 21.7069 -68.3033 168° South 491 565 31,000  Level Miami Center
01:01AM 21.5675 -68.2700 167° South 491 565 31,000  Level Miami Center
01:02AM 21.4494 -68.2442 168° South 491 565 31,000  Level Miami Center
01:03AM 21.3142 -68.2106 167° South 491 565 31,000  Level Miami Center
01:04AM 21.1667 -68.1778 168° South 491 565 31,000  Level Miami Center
01:05AM 21.0422 -68.1503 168° South 491 565 31,000  Level Miami Center
01:06AM 20.9031 -68.1150 167° South 502 578 31,000  Level Miami Center
01:07AM 20.7997 -68.0197 139° Southeast 468 539 31,000  Level Miami Center
01:13AM 20.1790 -67.2820 139° Southeast 528 608 31,000  Level FlightAware
01:14AM 20.1230 -67.2190 133° Southeast 528 608 31,000  Level FlightAware
01:15AM 20.0430 -67.1270 133° Southeast 527 606 31,000  Level FlightAware
01:15AM 19.9770 -67.0510 133° Southeast 529 609 31,000  Level FlightAware
01:16AM 19.9040 -66.9690 133° Southeast 530 610 31,000  Level FlightAware
01:17AM 19.8280 -66.8820 133° Southeast 527 606 31,000  Level FlightAware
01:17AM 19.7610 -66.8060 133° Southeast 527 606 31,000  Level FlightAware
01:18AM 19.6940 -66.7300 133° Southeast 524 603 31,000  Level FlightAware
01:19AM 19.6210 -66.6480 133° Southeast 523 602 31,000  Level FlightAware
01:19AM 19.5550 -66.5720 133° Southeast 522 601 31,000  Level FlightAware
01:20AM 19.4780 -66.4860 134° Southeast 522 601 31,000  Level FlightAware
01:21AM 19.4120 -66.4110 133° Southeast 522 601 31,000  Level FlightAware
01:22AM 19.3400 -66.3300 133° Southeast 520 598 31,000  Level FlightAware
01:22AM 19.2800 -66.2630 133° Southeast 520 598 31,000  Level FlightAware
01:23AM 19.2080 -66.1820 133° Southeast 520 598 31,000  Level FlightAware
01:24AM 19.1310 -66.0950 133° Southeast 521 600 31,000  Level FlightAware
01:24AM 19.0650 -66.0220 134° Southeast 523 602 31,000  Level FlightAware
01:25AM 18.9980 -65.9470 133° Southeast 524 603 31,000  Level FlightAware
01:26AM 18.9320 -65.8720 133° Southeast 524 603 31,000  Level FlightAware
01:26AM 18.8580 -65.7900 134° Southeast 525 604 31,000  Level FlightAware
01:27AM 18.7820 -65.7050 133° Southeast 527 606 31,000  Level FlightAware
01:28AM 18.7130 -65.6290 134° Southeast 527 606 31,000  Level FlightAware
01:29AM 18.6400 -65.5470 133° Southeast 528 608 31,000  Level FlightAware
01:29AM 18.5730 -65.4730 134° Southeast 528 608 31,000  Level FlightAware
01:30AM 18.5050 -65.3980 134° Southeast 529 609 31,000  Level FlightAware
01:31AM 18.4360 -65.3200 133° Southeast 529 609 31,000  Level FlightAware
01:31AM 18.3590 -65.2360 134° Southeast 529 609 31,000  Level FlightAware
01:32AM 18.2880 -65.1570 133° Southeast 529 609 31,000  Level FlightAware
01:33AM 18.2250 -65.0870 133° Southeast 529 609 31,000  Level FlightAware
01:33AM 18.1680 -65.0230 133° Southeast 529 609 31,000  Level FlightAware
01:34AM 18.1110 -64.9590 133° Southeast 529 609 31,000  Level FlightAware
01:35AM 18.0540 -64.8950 133° Southeast 529 609 31,000  Level FlightAware
01:35AM 17.9980 -64.8310 133° Southeast 529 609 31,000  Level FlightAware
01:36AM 17.9270 -64.7510 133° Southeast 529 609 31,000  Level FlightAware
01:37AM 17.8700 -64.6870 133° Southeast 529 609 31,000  Level FlightAware
01:38AM 17.8130 -64.6230 133° Southeast 529 609 31,000  Level FlightAware
01:38AM 17.7560 -64.5590 133° Southeast 529 609 31,000  Level FlightAware
01:39AM 17.6860 -64.4790 133° Southeast 529 609 31,000  Level FlightAware
01:40AM 17.6290 -64.4150 133° Southeast 529 609 31,000  Level FlightAware
01:40AM 17.5720 -64.3510 133° Southeast 529 609 31,000  Level FlightAware
01:41AM 17.5150 -64.2870 133° Southeast 529 609 31,000  Level FlightAware
01:42AM 17.4580 -64.2240 133° Southeast 529 609 31,000  Level FlightAware
01:42AM 17.2333 -64.0167 133° Southeast 530 610 31,000  Level San Juan Center
01:43AM 17.1333 -63.9000 132° Southeast 530 610 31,000  Level San Juan Center
01:44AM 17.0167 -63.7833 136° Southeast 530 610 31,000  Level San Juan Center
01:45AM 16.9333 -63.6833 131° Southeast 540 621 31,000  Level San Juan Center
01:46AM 16.8167 -63.5667 136° Southeast 540 621 31,000  Level San Juan Center
01:47AM 16.7167 -63.4500 132° Southeast 540 621 31,000  Level San Juan Center
01:48AM 16.6167 -63.3333 132° Southeast 540 621 31,000  Level San Juan Center
01:49AM 16.5000 -63.2333 141° Southeast 530 610 31,000  Level San Juan Center
01:50AM 16.4167 -63.1167 127° Southeast 500 575 31,000  Level San Juan Center
01:52AM 16.3043 -63.0043 136° Southeast  Level FlightAware Approximate
01:59AM 15.6746 -62.2699 132° Southeast  Level FlightAware Approximate
01:59AM 15.4570 -62.2480 132° Southeast 517 595 31,000  Level FlightAware
02:00AM 15.3750 -62.2080 155° Southeast 517 595 31,000  Level FlightAware
02:00AM 15.2850 -62.1630 154° Southeast 517 595 31,000  Level FlightAware
02:01AM 15.1860 -62.1130 154° Southeast 519 597 31,000 720 Level FlightAware
02:02AM 15.1000 -62.0700 154° Southeast 516 594 32,100 1,380 Climbing FlightAware
02:03AM 15.0050 -62.0230 154° Southeast 506 582 33,000 600 Climbing FlightAware
02:03AM 14.9250 -61.9830 154° Southeast 506 582 33,000  Level FlightAware
02:04AM 14.8450 -61.9430 154° Southeast 503 579 33,000  Level FlightAware
02:05AM 14.7500 -61.8960 154° Southeast 502 578 33,000  Level FlightAware
02:05AM 14.6710 -61.8570 154° Southeast 501 577 33,000  Level FlightAware
02:06AM 14.5760 -61.8100 154° Southeast 503 579 33,000  Level FlightAware
02:07AM 14.4920 -61.7680 154° Southeast 505 581 33,000  Level FlightAware
02:08AM 14.3860 -61.7150 154° Southeast 506 582 33,000  Level FlightAware
02:08AM 14.2820 -61.6640 155° Southeast 507 583 33,000  Level FlightAware
02:09AM 14.1930 -61.5970 144° Southeast 523 602 33,000  Level FlightAware
02:10AM 14.1390 -61.5270 128° Southeast 527 606 33,000  Level FlightAware
02:11AM 14.0690 -61.4340 128° Southeast 525 604 33,000  Level FlightAware
02:11AM 13.9840 -61.3200 128° Southeast 524 603 33,000  Level FlightAware
02:12AM 13.9270 -61.2330 124° Southeast 524 603 33,000  Level FlightAware
02:13AM 13.8730 -61.1430 122° Southeast 526 605 33,000  Level FlightAware
02:14AM 13.8240 -61.0490 118° Southeast 524 603 33,000  Level FlightAware
02:14AM 13.7810 -60.9670 118° Southeast 524 603 33,000  Level FlightAware
02:15AM 13.7280 -60.8660 118° Southeast 523 602 33,000  Level FlightAware
02:16AM 13.6670 -60.7460 118° Southeast 525 604 33,000  Level FlightAware
02:17AM 13.6250 -60.6530 115° Southeast 527 606 33,000  Level FlightAware
02:17AM 13.5830 -60.5450 112° Southeast 529 609 33,000  Level FlightAware
02:18AM 13.5440 -60.4480 112° Southeast 529 609 33,000  Level FlightAware
02:19AM 13.5050 -60.3520 113° Southeast 529 609 33,000  Level FlightAware
02:19AM 13.4730 -60.2700 112° Southeast 531 611 33,000  Level FlightAware
02:20AM 13.4410 -60.1870 112° Southeast 531 611 33,000  Level FlightAware
02:21AM 13.3840 -60.0580 114° Southeast 531 611 33,000  Level FlightAware
02:22AM 13.3400 -59.9690 117° Southeast 524 603 33,000  Level FlightAware
02:22AM 13.2570 -59.8620 129° Southeast 519 597 33,000  Level FlightAware
02:23AM 13.1880 -59.7870 133° Southeast 516 594 33,000  Level FlightAware
02:24AM 13.1030 -59.6790 129° Southeast 527 606 33,000  Level FlightAware
02:25AM 13.0610 -59.6130 123° Southeast 521 600 33,000  Level FlightAware
02:25AM 13.0130 -59.5670 137° Southeast 509 586 33,000  Level FlightAware
02:26AM 12.9360 -59.5300 155° Southeast 498 573 33,000  Level FlightAware
02:26AM 12.8390 -59.5190 174° South 490 564 33,000  Level FlightAware
02:27AM 12.7100 -59.5120 177° South 488 562 33,000  Level FlightAware
02:28AM 12.6050 -59.5050 176° South 488 562 33,000  Level FlightAware
02:29AM 12.5320 -59.5000 176° South 488 562 33,000  Level FlightAware
02:30AM 12.4360 -59.4930 176° South 488 562 33,000  Level FlightAware
02:30AM 12.3600 -59.4880 176° South 488 562 33,000  Level FlightAware
02:31AM 12.2830 -59.4820 176° South 488 562 33,000  Level FlightAware
02:32AM 12.2070 -59.4770 176° South 488 562 33,000  Level FlightAware
02:32AM 12.1300 -59.4710 176° South 488 562 33,000  Level FlightAware
02:35AM 11.8373 -59.3639 160° South  Level Estimated
02:36AM 11.7100 -59.3175 160° South  Level Estimated
02:37AM 11.5828 -59.2710 160° South  Level Estimated
02:38AM 11.4555 -59.2247 160° South  Level Estimated
02:39AM 11.3282 -59.1783 160° South  Level Estimated
02:40AM 11.2009 -59.1320 160° South  Level Estimated
02:41AM 11.0736 -59.0858 160° South  Level Estimated
02:42AM 10.9462 -59.0395 160° South  Level Estimated
02:43AM 10.8189 -58.9934 160° South  Level Estimated
02:44AM 10.6916 -58.9472 160° South  Level Estimated
02:45AM 10.5642 -58.9011 160° South  Level Estimated
02:46AM 10.4369 -58.8550 160° South  Level Estimated
02:47AM 10.3096 -58.8090 160° South  Level Estimated
02:48AM 10.1822 -58.7630 160° South  Level Estimated
02:49AM 10.0548 -58.7171 160° South  Level Estimated
02:50AM 9.9275 -58.6712 160° South  Level Estimated
02:51AM 9.8001 -58.6253 160° South  Level Estimated
02:52AM 9.6727 -58.5794 160° South  Level Estimated
02:53AM 9.5453 -58.5336 160° South  Level Estimated
02:54AM 9.4179 -58.4878 160° South  Level Estimated
02:55AM 9.2905 -58.4421 160° South  Level Estimated
02:56AM 9.1631 -58.3964 160° South  Level Estimated
02:57AM 9.0357 -58.3507 161° South  Level Estimated
02:58AM 8.9083 -58.3051 161° South  Level Estimated
02:59AM 8.7809 -58.2594 161° South  Level Estimated
03:00AM 8.6534 -58.2139 161° South  Level Estimated
03:01AM 8.5260 -58.1683 161° South  Level Estimated
03:02AM 8.3986 -58.1228 161° South  Level Estimated
03:03AM 8.2711 -58.0773 161° South  Level Estimated
03:04AM 8.1437 -58.0318 161° South  Level Estimated
03:05AM 8.0162 -57.9864 161° South  Level Estimated
03:06AM 7.8888 -57.9410 161° South  Level Estimated
03:07AM 7.7613 -57.8956 161° South  Level Estimated
03:08AM 7.6338 -57.8503 161° South  Level Estimated
03:09AM 7.5064 -57.8050 161° South  Level Estimated
03:10AM 7.3789 -57.7597 161° South  Level Estimated
03:11AM 7.2514 -57.7144 161° South  Level Estimated
03:12AM 7.1239 -57.6692 161° South  Level Estimated
03:13AM 6.9964 -57.6239 161° South  Level Estimated
03:14AM 6.8689 -57.5788 161° South  Level Estimated
03:15AM 6.7414 -57.5336 161° South  Level Estimated
03:16AM 6.6139 -57.4884 161° South  Level Estimated
03:17AM 6.4864 -57.4433 161° South  Level Estimated
03:18AM 6.3589 -57.3982 161° South  Level Estimated
03:19AM 6.2355 -57.3546 161° South  Level Estimated
03:20AM 6.1121 -57.3110 161° South  Level Estimated
03:21AM 5.9886 -57.2674 161° South  Level Estimated
03:22AM 5.8652 -57.2238 161° South  Level Estimated
03:23AM 5.7418 -57.1803 161° South  Level Estimated
03:24AM 5.6183 -57.1367 161° South  Level Estimated
03:25AM 5.4949 -57.0932 161° South  Level Estimated
03:26AM 5.3715 -57.0497 161° South  Level Estimated
03:27AM 5.2480 -57.0062 161° South  Level Estimated
03:28AM 5.1246 -56.9628 161° South  Level Estimated
03:29AM 5.0011 -56.9193 161° South  Level Estimated
03:30AM 4.8777 -56.8759 161° South  Level Estimated
03:31AM 4.7542 -56.8325 161° South  Level Estimated
03:32AM 4.6307 -56.7891 161° South  Level Estimated
03:33AM 4.5073 -56.7457 161° South  Level Estimated
03:34AM 4.3838 -56.7024 161° South  Level Estimated
03:35AM 4.2603 -56.6590 161° South  Level Estimated
03:36AM 4.1369 -56.6157 161° South  Level Estimated
03:37AM 4.0134 -56.5723 161° South  Level Estimated
03:38AM 3.8899 -56.5290 161° South  Level Estimated
03:39AM 3.7664 -56.4857 161° South  Level Estimated
03:40AM 3.6430 -56.4425 161° South  Level Estimated
03:41AM 3.5195 -56.3992 161° South  Level Estimated
03:42AM 3.3960 -56.3559 161° South  Level Estimated
03:43AM 3.2725 -56.3127 161° South  Level Estimated
03:44AM 3.1490 -56.2694 161° South  Level Estimated
03:45AM 3.0255 -56.2262 161° South  Level Estimated
03:46AM 2.9021 -56.1830 161° South  Level Estimated
03:47AM 2.7786 -56.1398 161° South  Level Estimated
03:48AM 2.6551 -56.0966 161° South  Level Estimated
03:49AM 2.5316 -56.0534 161° South  Level Estimated
03:50AM 2.4081 -56.0102 161° South  Level Estimated
03:51AM 2.2846 -55.9670 161° South  Level Estimated
03:52AM 2.1611 -55.9238 161° South  Level Estimated
03:53AM 2.0376 -55.8807 161° South  Level Estimated
03:54AM 1.9141 -55.8375 161° South  Level Estimated
03:55AM 1.7906 -55.7944 161° South  Level Estimated
03:56AM 1.6673 -55.7513 161° South  Level Estimated
03:57AM 1.5440 -55.7082 161° South  Level Estimated
03:58AM 1.4207 -55.6652 161° South  Level Estimated
03:59AM 1.2974 -55.6222 161° South  Level Estimated
04:00AM 1.1742 -55.5791 161° South  Level Estimated
04:01AM 1.0509 -55.5361 161° South  Level Estimated
04:02AM 0.9276 -55.4930 161° South  Level Estimated
04:03AM 0.8043 -55.4500 161° South  Level Estimated
04:04AM 0.6811 -55.4070 161° South  Level Estimated
04:05AM 0.5578 -55.3639 161° South  Level Estimated
04:06AM 0.4345 -55.3209 161° South  Level Estimated
04:07AM 0.3112 -55.2779 161° South  Level Estimated
04:08AM 0.1879 -55.2348 161° South  Level Estimated
04:09AM 0.0646 -55.1918 161° South  Level Estimated
04:10AM -0.0586 -55.1488 161° South  Level Estimated
04:11AM -0.1819 -55.1058 161° South  Level Estimated
04:12AM -0.3052 -55.0627 161° South  Level Estimated
04:13AM -0.4285 -55.0197 161° South  Level Estimated
04:14AM -0.5518 -54.9767 161° South  Level Estimated
04:15AM -0.6750 -54.9336 161° South  Level Estimated
04:16AM -0.7983 -54.8906 161° South  Level Estimated
04:17AM -0.9216 -54.8476 161° South  Level Estimated
04:18AM -1.0449 -54.8045 161° South  Level Estimated
04:19AM -1.1681 -54.7615 161° South  Level Estimated
04:20AM -1.2914 -54.7184 161° South  Level Estimated
04:21AM -1.4147 -54.6754 161° South  Level Estimated
04:22AM -1.5380 -54.6324 161° South  Level Estimated
04:23AM -1.6613 -54.5893 161° South  Level Estimated
04:24AM -1.7845 -54.5462 161° South  Level Estimated
04:25AM -1.9078 -54.5032 161° South  Level Estimated
04:26AM -2.0311 -54.4601 161° South  Level Estimated
04:27AM -2.1544 -54.4170 161° South  Level Estimated
04:28AM -2.2776 -54.3739 161° South  Level Estimated
04:29AM -2.4009 -54.3308 161° South  Level Estimated
04:30AM -2.5242 -54.2877 161° South  Level Estimated
04:31AM -2.6474 -54.2446 161° South  Level Estimated
04:32AM -2.7707 -54.2015 161° South  Level Estimated
04:33AM -2.8940 -54.1584 161° South  Level Estimated
04:34AM -3.0172 -54.1152 161° South  Level Estimated
04:35AM -3.1405 -54.0721 161° South  Level Estimated
04:36AM -3.2638 -54.0289 161° South  Level Estimated
04:37AM -3.3870 -53.9857 161° South  Level Estimated
04:38AM -3.5103 -53.9426 161° South  Level Estimated
04:39AM -3.6335 -53.8994 161° South  Level Estimated
04:40AM -3.7568 -53.8562 161° South  Level Estimated
04:41AM -3.8800 -53.8129 161° South  Level Estimated
04:42AM -4.0033 -53.7697 161° South  Level Estimated
04:43AM -4.1265 -53.7265 161° South  Level Estimated
04:44AM -4.2497 -53.6832 161° South  Level Estimated
04:45AM -4.3730 -53.6399 161° South  Level Estimated
04:46AM -4.4962 -53.5967 161° South  Level Estimated
04:47AM -4.6195 -53.5534 161° South  Level Estimated
04:48AM -4.7427 -53.5101 161° South  Level Estimated
04:49AM -4.8659 -53.4667 161° South  Level Estimated
04:50AM -4.9891 -53.4234 161° South  Level Estimated
04:51AM -5.1124 -53.3800 161° South  Level Estimated
04:52AM -5.2356 -53.3366 161° South  Level Estimated
04:53AM -5.3588 -53.2933 161° South  Level Estimated
04:54AM -5.4820 -53.2498 161° South  Level Estimated
04:55AM -5.6052 -53.2064 161° South  Level Estimated
04:56AM -5.7284 -53.1630 161° South  Level Estimated
04:57AM -5.8516 -53.1195 161° South  Level Estimated
04:58AM -5.9748 -53.0760 161° South  Level Estimated
04:59AM -6.0980 -53.0325 161° South  Level Estimated
05:00AM -6.2212 -52.9890 161° South  Level Estimated
05:01AM -6.3444 -52.9454 161° South  Level Estimated
05:02AM -6.4676 -52.9018 161° South  Level Estimated
05:03AM -6.5908 -52.8582 161° South  Level Estimated
05:04AM -6.7140 -52.8146 161° South  Level Estimated
05:05AM -6.8371 -52.7710 161° South  Level Estimated
05:06AM -6.9603 -52.7274 161° South  Level Estimated
05:07AM -7.0835 -52.6837 161° South  Level Estimated
05:08AM -7.2066 -52.6400 161° South  Level Estimated
05:09AM -7.3298 -52.5963 161° South  Level Estimated
05:10AM -7.4530 -52.5525 161° South  Level Estimated
05:11AM -7.5761 -52.5087 161° South  Level Estimated
05:12AM -7.6993 -52.4649 161° South  Level Estimated
05:13AM -7.8224 -52.4211 161° South  Level Estimated
05:14AM -7.9455 -52.3773 161° South  Level Estimated
05:15AM -8.0687 -52.3334 161° South  Level Estimated
05:16AM -8.1918 -52.2895 161° South  Level Estimated
05:17AM -8.3149 -52.2456 161° South  Level Estimated
05:18AM -8.4380 -52.2016 161° South  Level Estimated
05:19AM -8.5611 -52.1576 161° South  Level Estimated
05:20AM -8.6843 -52.1136 161° South  Level Estimated
05:21AM -8.8074 -52.0696 161° South  Level Estimated
05:22AM -8.9305 -52.0255 161° South  Level Estimated
05:23AM -9.0535 -51.9814 161° South  Level Estimated
05:24AM -9.1762 -51.9374 161° South  Level Estimated
05:25AM -9.2988 -51.8934 161° South  Level Estimated
05:26AM -9.4214 -51.8494 160° South  Level Estimated
05:27AM -9.5441 -51.8053 160° South  Level Estimated
05:28AM -9.6667 -51.7612 160° South  Level Estimated
05:29AM -9.7893 -51.7171 160° South  Level Estimated
05:30AM -9.9119 -51.6730 160° South  Level Estimated
05:31AM -10.0345 -51.6288 160° South  Level Estimated
05:32AM -10.1571 -51.5845 160° South  Level Estimated
05:32AM -10.1280 -50.9980 160° South 501 577 35,000  Level FlightAware
05:33AM -10.2796 -51.5403 160° South  Level Estimated
05:33AM -10.2120 -50.9550 153° Southeast 502 578 35,000  Level FlightAware
05:33AM -10.2110 -50.9560 315° West 502 578 35,000  Level FlightAware
05:34AM -10.4070 -50.8570 154° Southeast 502 578 35,000  Level FlightAware
05:35AM -10.3580 -50.8830 332° Northwest 35,000  Level FlightAware
05:38AM -10.6753 -50.7824 163° South  Level Estimated
05:38AM -10.9170 -50.5980 163° South 502 578 35,000  Level FlightAware
05:39AM -10.9880 -50.5610 153° Southeast 502 578 35,000  Level FlightAware
05:40AM -11.0580 -50.5250 153° Southeast 502 578 35,000  Level FlightAware
05:41AM -11.2760 -50.4150 154° Southeast 504 580 35,000  Level FlightAware
05:42AM -11.3110 -50.3970 153° Southeast 503 579 35,000  Level FlightAware
05:43AM -11.4510 -50.3260 154° Southeast 503 579 35,000  Level FlightAware
05:44AM -11.5800 -50.2600 153° Southeast 504 580 35,000  Level FlightAware
05:44AM -11.6510 -50.2230 153° Southeast 504 580 35,000  Level FlightAware
05:46AM -11.7180 -50.1900 164° South 504 580 35,000  Level FlightAware
05:47AM -11.9282 -50.1398 164° South  Level Estimated
05:47AM -12.0020 -50.0440 153° Southeast 506 582 35,000  Level FlightAware
05:48AM -12.1620 -49.9620 153° Southeast 506 582 35,000  Level FlightAware
05:49AM -12.2470 -49.9180 153° Southeast 506 582 35,000  Level FlightAware
05:50AM -12.3180 -49.8810 153° Southeast 506 582 35,000  Level FlightAware
05:50AM -12.3890 -49.8440 153° Southeast 506 582 35,000  Level FlightAware
05:51AM -12.4780 -49.7980 153° Southeast 506 582 35,000  Level FlightAware
05:52AM -12.5490 -49.7610 153° Southeast 506 582 35,000  Level FlightAware
05:52AM -12.6190 -49.7240 153° Southeast 506 582 35,000  Level FlightAware
05:53AM -12.6900 -49.6870 153° Southeast 506 582 35,000  Level FlightAware
05:54AM -12.7610 -49.6500 153° Southeast 506 582 35,000  Level FlightAware
05:55AM -12.8500 -49.6030 153° Southeast 506 582 35,000  Level FlightAware
05:55AM -12.9210 -49.5660 153° Southeast 506 582 35,000 60 Level FlightAware
05:56AM -12.1620 -49.9620 333° Northwest 35,000 60 Level FlightAware
05:58AM -12.3771 -49.8991 164° South  Level Estimated
05:59AM -12.5025 -49.8624 164° South  Level Estimated
06:00AM -12.6278 -49.8257 164° South  Level Estimated
06:01AM -12.7531 -49.7890 164° South  Level Estimated
06:02AM -12.8784 -49.7522 164° South  Level Estimated
06:03AM -13.0037 -49.7154 164° South  Level Estimated
06:04AM -13.1290 -49.6785 164° South  Level Estimated
06:05AM -13.2542 -49.6416 164° South  Level Estimated
06:06AM -13.3795 -49.6047 164° South  Level Estimated
06:06AM -14.4470 -48.7760 164° South 506 582 36,000  Level FlightAware
06:07AM -14.5190 -48.7380 153° Southeast 507 583 36,000  Level FlightAware
06:08AM -14.6170 -48.6860 153° Southeast 509 586 36,000  Level FlightAware
06:08AM -14.7090 -48.6280 149° Southeast 514 592 36,000  Level FlightAware
06:09AM -14.7810 -48.5660 140° Southeast 517 595 36,000  Level FlightAware
06:10AM -14.8650 -48.4940 140° Southeast 517 595 36,000  Level FlightAware
06:10AM -14.9480 -48.4470 151° Southeast 513 590 36,000  Level FlightAware
06:11AM -15.0280 -48.4110 157° South 513 590 36,000  Level FlightAware
06:12AM -15.1360 -48.3620 156° South 511 588 36,000  Level FlightAware
06:13AM -15.2200 -48.3240 156° South 510 587 36,000  Level FlightAware
06:13AM -15.3180 -48.2790 156° South 511 588 36,000  Level FlightAware
06:14AM -15.4050 -48.2390 156° South 508 585 36,000  Level FlightAware
06:15AM -15.4960 -48.1970 156° South 508 585 36,000  Level FlightAware
06:15AM -15.5880 -48.1540 156° South 507 583 36,000  Level FlightAware
06:16AM -15.6640 -48.1180 155° Southeast 507 583 36,000  Level FlightAware
06:17AM -15.7680 -48.0700 156° South 507 583 36,000  Level FlightAware
06:17AM -15.8520 -48.0330 157° South 507 583 36,000  Level FlightAware
06:18AM -15.9520 -48.0110 168° South 502 578 36,000  Level FlightAware
06:19AM -16.0210 -47.9880 162° South 502 578 36,000  Level FlightAware
06:19AM -16.1290 -47.9880 180° South 498 573 36,000  Level FlightAware
06:20AM -16.2200 -47.9770 173° South 498 573 36,000  Level FlightAware
06:21AM -16.3290 -47.9660 174° South 497 572 36,000  Level FlightAware
06:22AM -16.4390 -47.9580 176° South 496 571 36,000  Level FlightAware
06:22AM -16.5230 -47.9510 175° South 495 570 36,000  Level FlightAware
06:23AM -16.6280 -47.9430 176° South 494 568 36,000  Level FlightAware
06:24AM -16.7080 -47.9370 176° South 494 568 36,000  Level FlightAware
06:24AM -16.7970 -47.9290 175° South 494 568 36,000  Level FlightAware
06:25AM -16.8750 -47.9220 175° South 494 568 36,000  Level FlightAware
06:26AM -16.9710 -47.9130 175° South 494 568 36,000  Level FlightAware
06:27AM -17.0490 -47.9060 175° South 494 568 36,000  Level FlightAware
06:27AM -17.1260 -47.8990 175° South 494 568 36,000  Level FlightAware
06:28AM -17.2040 -47.8920 175° South 494 568 36,000  Level FlightAware
06:29AM -17.3000 -47.8830 175° South 494 568 36,000  Level FlightAware
06:29AM -17.3780 -47.8760 175° South 494 568 36,000  Level FlightAware
06:30AM -17.4550 -47.8690 175° South 494 568 36,000  Level FlightAware
06:31AM -17.5330 -47.8610 174° South 494 568 36,000  Level FlightAware
06:31AM -17.6100 -47.8540 175° South 494 568 36,000  Level FlightAware
06:32AM -17.7070 -47.8450 175° South 494 568 36,000  Level FlightAware
06:33AM -17.7840 -47.8380 175° South 494 568 36,000  Level FlightAware
06:34AM -17.8620 -47.8310 175° South 494 568 36,000  Level FlightAware
06:36AM -18.1121 -47.7719 167° South  Level Estimated
06:37AM -18.2393 -47.7419 167° South  Level Estimated
06:38AM -18.3664 -47.7117 167° South  Level Estimated
06:39AM -18.4935 -47.6815 167° South  Level Estimated
06:40AM -18.6207 -47.6513 167° South  Level Estimated
06:41AM -18.7478 -47.6210 167° South  Level Estimated
06:42AM -18.8750 -47.5907 167° South  Level Estimated
06:42AM -19.2250 -47.5840 167° South 495 570 36,000  Level FlightAware
06:43AM -19.3340 -47.5680 172° South 495 570 36,000  Level FlightAware
06:44AM -19.4780 -47.5480 173° South 497 572 36,000  Level FlightAware
06:45AM -19.5370 -47.5390 172° South 497 572 36,000  Level FlightAware
06:45AM -19.6340 -47.5250 172° South 498 573 36,000  Level FlightAware
06:46AM -19.7370 -47.5100 172° South 499 574 36,000  Level FlightAware
06:47AM -19.8260 -47.5020 175° South 497 572 36,000  Level FlightAware
06:48AM -19.9940 -47.4900 176° South 497 572 36,000  Level FlightAware
06:49AM -20.0990 -47.4820 176° South 496 571 36,000  Level FlightAware
06:49AM -20.1910 -47.4760 176° South 495 570 36,000  Level FlightAware
06:50AM -20.2820 -47.4690 176° South 495 570 36,000  Level FlightAware
06:51AM -20.3850 -47.4620 176° South 495 570 36,000  Level FlightAware
06:51AM -20.4740 -47.4550 176° South 494 568 36,000  Level FlightAware
06:52AM -20.5640 -47.4490 176° South 495 570 36,000  Level FlightAware
06:53AM -20.6710 -47.4300 171° South 500 575 36,000  Level FlightAware
06:53AM -20.7620 -47.4130 170° South 500 575 36,000  Level FlightAware
06:54AM -20.8620 -47.3950 170° South 499 574 36,000  Level FlightAware
06:55AM -20.9540 -47.3800 171° South 499 574 36,000  Level FlightAware
06:55AM -21.0420 -47.3650 171° South 499 574 36,000  Level FlightAware
06:56AM -21.1520 -47.3460 171° South 500 575 36,000  Level FlightAware
06:57AM -21.2230 -47.3340 171° South 501 577 36,000  Level FlightAware
06:58AM -21.3440 -47.3140 171° South 502 578 36,000  Level FlightAware
06:58AM -21.4360 -47.2980 171° South 503 579 36,000  Level FlightAware
06:59AM -21.5430 -47.2800 171° South 503 579 36,000 -180 Level FlightAware
07:00AM -21.6110 -47.2680 171° South 506 582 35,800 -1,680 Descending FlightAware
07:00AM -21.7040 -47.2520 171° South 508 585 34,100 -2,820 Descending FlightAware
07:01AM -21.7860 -47.2380 171° South 514 592 32,300 -2,700 Descending FlightAware
07:01AM -21.8550 -47.2260 171° South 509 586 31,200 -2,100 Descending FlightAware
07:02AM -21.9670 -47.2060 171° South 497 572 29,500 -2,040 Descending FlightAware
07:03AM -22.0630 -47.1890 171° South 486 559 28,000 -2,100 Descending FlightAware
07:04AM -22.1500 -47.1740 171° South 476 548 26,600 -2,040 Descending FlightAware
07:04AM -22.2360 -47.1580 170° South 465 535 25,300 -2,040 Descending FlightAware
07:05AM -22.3140 -47.1440 171° South 456 525 24,100 -1,920 Descending FlightAware
07:06AM -22.4120 -47.1270 171° South 442 509 22,600 -1,860 Descending FlightAware
07:06AM -22.5010 -47.1110 171° South 432 497 21,200 -1,920 Descending FlightAware
07:07AM -22.5670 -47.0980 170° South 427 491 20,200 -1,860 Descending FlightAware
07:08AM -22.6610 -47.0630 161° South 419 482 18,600 -1,860 Descending FlightAware
07:08AM -22.7370 -47.0300 158° South 408 470 17,300 -1,800 Descending FlightAware
07:09AM -22.8000 -47.0040 159° South 372 428 16,200 -1,680 Descending FlightAware
07:10AM -22.8710 -46.9740 159° South 323 372 15,000 -1,560 Descending FlightAware
07:11AM -22.9240 -46.9520 159° South 319 367 14,000 -1,620 Descending FlightAware
07:11AM -22.9780 -46.9300 159° South 301 346 12,900 -1,680 Descending FlightAware
07:12AM -23.0350 -46.9050 158° South 295 339 11,700 -1,620 Descending FlightAware
07:13AM -23.0760 -46.8880 159° South 288 331 10,800 -1,320 Descending FlightAware
07:13AM -23.1280 -46.8660 159° South 284 327 10,000 -1,140 Descending FlightAware
07:14AM -23.1580 -46.8540 160° South 273 314 9,500 -1,200 Descending FlightAware
07:14AM -23.2020 -46.8350 158° South 274 315 8,800 -1,140 Descending FlightAware
07:15AM -23.2290 -46.8240 159° South 273 314 8,400 -1,140 Descending FlightAware
07:15AM -23.2670 -46.8070 158° South 279 321 7,800 -1,020 Descending FlightAware
07:16AM -23.2940 -46.7960 159° South 267 307 7,500 -600 Descending FlightAware
07:16AM -23.3230 -46.7840 159° South 255 293 7,300 -480 Descending FlightAware
07:16AM -23.3500 -46.7720 158° South 254 292 7,100 -600 Descending FlightAware
07:17AM -23.3850 -46.7560 157° South 254 292 6,800 -900 Descending FlightAware
07:17AM -23.4220 -46.7400 158° South 253 291 6,200 -1,140 Descending FlightAware
07:18AM -23.4540 -46.7270 160° South 255 293 5,600 -1,200 Descending FlightAware
07:18AM -23.4620 -46.7230 155° Southeast 258 297 5,400 -600 Descending FlightAware
07:19AM -23.4870 -46.6940 133° Southeast 238 274 5,200 -300 Descending FlightAware
07:19AM -23.4880 -46.6890 102° East 234 269 5,200 -180 Level FlightAware
07:19AM -23.4810 -46.6430 81° East 213 245 5,100 -600 Descending FlightAware
07:20AM -23.4720 -46.6110 73° East 211 243 4,600 -1,140 Descending FlightAware
07:20AM -23.4640 -46.5820 73° East 190 219 4,000 -1,080 Descending FlightAware
07:21AM -23.4610 -46.5690 76° East 178 205 3,800 -900 Descending FlightAware
07:21AM -23.4550 -46.5480 73° East 158 182 3,400 -900 Descending FlightAware
07:21AM -23.4520 -46.5360 75° East 159 183 3,200 -840 Descending FlightAware
07:22AM -23.4460 -46.5140 73° East 153 176 2,800 -780 Descending FlightAware
07:22AM -23.4410 -46.4950 74° East 152 175 2,500 -720 Descending FlightAware